sensor_id;sensor_type;location;lat;lon;timestamp;temperature;humidity
23475;DHT22;11910;52.086;21.066;2024-01-30T00:02:16;1.50;99.90
23475;DHT22;11910;52.086;21.066;2024-01-30T00:04:42;1.50;99.90
23475;DHT22;11910;52.086;21.066;2024-01-30T00:07:07;1.50;99.90
23475;DHT22;11910;52.086;21.066;2024-01-30T00:09:33;1.50;99.90
23475;DHT22;11910;52.086;21.066;2024-01-30T00:11:59;1.50;99.90
23475;DHT22;11910;52.086;21.066;2024-01-30T00:14:24;1.50;99.90
23475;DHT22;11910;52.086;21.066;2024-01-30T00:16:51;1.50;99.90
23475;DHT22;11910;52.086;21.066;2024-01-30T00:19:17;1.60;99.90
23475;DHT22;11910;52.086;21.066;2024-01-30T00:21:43;1.60;99.90
23475;DHT22;11910;52.086;21.066;2024-01-30T00:24:08;1.60;99.90
23475;DHT22;11910;52.086;21.066;2024-01-30T00:26:34;1.50;99.90
23475;DHT22;11910;52.086;21.066;2024-01-30T00:29:00;1.60;99.90
23475;DHT22;11910;52.086;21.066;2024-01-30T00:31:25;1.60;99.90
23475;DHT22;11910;52.086;21.066;2024-01-30T00:33:51;1.60;99.90
23475;DHT22;11910;52.086;21.066;2024-01-30T00:36:17;1.60;99.90
23475;DHT22;11910;52.086;21.066;2024-01-30T00:38:42;1.60;99.90
23475;DHT22;11910;52.086;21.066;2024-01-30T00:41:08;1.60;99.90
23475;DHT22;11910;52.086;21.066;2024-01-30T00:43:35;1.60;99.90
23475;DHT22;11910;52.086;21.066;2024-01-30T00:46:00;1.60;99.90
23475;DHT22;11910;52.086;21.066;2024-01-30T00:48:26;1.60;99.90
23475;DHT22;11910;52.086;21.066;2024-01-30T00:50:52;1.70;99.90
23475;DHT22;11910;52.086;21.066;2024-01-30T00:53:18;1.70;99.90
23475;DHT22;11910;52.086;21.066;2024-01-30T00:55:43;1.70;99.90
23475;DHT22;11910;52.086;21.066;2024-01-30T00:58:09;1.70;99.90
23475;DHT22;11910;52.086;21.066;2024-01-30T01:00:35;1.70;99.90
23475;DHT22;11910;52.086;21.066;2024-01-30T01:03:01;1.70;99.90
23475;DHT22;11910;52.086;21.066;2024-01-30T01:05:26;1.70;99.90
23475;DHT22;11910;52.086;21.066;2024-01-30T01:07:52;1.70;99.90
23475;DHT22;11910;52.086;21.066;2024-01-30T01:10:18;1.70;99.90
23475;DHT22;11910;52.086;21.066;2024-01-30T01:12:44;1.70;99.90
23475;DHT22;11910;52.086;21.066;2024-01-30T01:15:10;1.70;99.90
23475;DHT22;11910;52.086;21.066;2024-01-30T01:17:37;1.80;99.90
23475;DHT22;11910;52.086;21.066;2024-01-30T01:20:04;1.80;99.90
23475;DHT22;11910;52.086;21.066;2024-01-30T01:22:30;1.80;99.90
23475;DHT22;11910;52.086;21.066;2024-01-30T01:24:56;1.80;99.90
23475;DHT22;11910;52.086;21.066;2024-01-30T01:27:22;1.70;99.90
23475;DHT22;11910;52.086;21.066;2024-01-30T01:29:47;1.70;99.90
23475;DHT22;11910;52.086;21.066;2024-01-30T01:32:13;1.60;99.90
23475;DHT22;11910;52.086;21.066;2024-01-30T01:34:38;1.60;99.90
23475;DHT22;11910;52.086;21.066;2024-01-30T01:37:04;1.50;99.90
23475;DHT22;11910;52.086;21.066;2024-01-30T01:39:29;1.50;99.90
23475;DHT22;11910;52.086;21.066;2024-01-30T01:41:55;1.40;99.90
23475;DHT22;11910;52.086;21.066;2024-01-30T01:44:21;1.40;99.90
23475;DHT22;11910;52.086;21.066;2024-01-30T01:46:47;1.30;99.90
23475;DHT22;11910;52.086;21.066;2024-01-30T01:49:13;1.30;99.90
23475;DHT22;11910;52.086;21.066;2024-01-30T01:51:41;1.30;99.90
23475;DHT22;11910;52.086;21.066;2024-01-30T01:54:08;1.20;99.90
23475;DHT22;11910;52.086;21.066;2024-01-30T01:56:34;1.20;99.90
23475;DHT22;11910;52.086;21.066;2024-01-30T01:59:05;1.20;99.90
23475;DHT22;11910;52.086;21.066;2024-01-30T02:01:33;1.10;99.90
23475;DHT22;11910;52.086;21.066;2024-01-30T02:03:59;1.10;99.90
23475;DHT22;11910;52.086;21.066;2024-01-30T02:06:26;1.10;99.90
23475;DHT22;11910;52.086;21.066;2024-01-30T02:08:51;1.10;99.90
23475;DHT22;11910;52.086;21.066;2024-01-30T02:11:17;1.00;99.90
23475;DHT22;11910;52.086;21.066;2024-01-30T02:13:43;1.00;99.90
23475;DHT22;11910;52.086;21.066;2024-01-30T02:16:09;1.00;99.90
23475;DHT22;11910;52.086;21.066;2024-01-30T02:18:35;1.00;99.90
23475;DHT22;11910;52.086;21.066;2024-01-30T02:21:05;0.90;99.90
23475;DHT22;11910;52.086;21.066;2024-01-30T02:23:32;0.80;99.90
23475;DHT22;11910;52.086;21.066;2024-01-30T02:25:58;0.80;99.90
23475;DHT22;11910;52.086;21.066;2024-01-30T02:28:24;0.80;99.90
23475;DHT22;11910;52.086;21.066;2024-01-30T02:30:49;0.80;99.90
23475;DHT22;11910;52.086;21.066;2024-01-30T02:33:15;0.80;99.90
23475;DHT22;11910;52.086;21.066;2024-01-30T02:35:41;0.80;99.90
23475;DHT22;11910;52.086;21.066;2024-01-30T02:38:06;0.80;99.90
23475;DHT22;11910;52.086;21.066;2024-01-30T02:40:32;0.80;99.90
23475;DHT22;11910;52.086;21.066;2024-01-30T02:42:59;0.70;99.90
23475;DHT22;11910;52.086;21.066;2024-01-30T02:45:25;0.70;99.90
23475;DHT22;11910;52.086;21.066;2024-01-30T02:47:50;0.80;99.90
23475;DHT22;11910;52.086;21.066;2024-01-30T02:50:16;0.70;99.90
23475;DHT22;11910;52.086;21.066;2024-01-30T02:52:42;0.70;99.90
23475;DHT22;11910;52.086;21.066;2024-01-30T02:55:09;0.70;99.90
23475;DHT22;11910;52.086;21.066;2024-01-30T02:57:35;0.60;99.90
23475;DHT22;11910;52.086;21.066;2024-01-30T03:00:01;0.70;99.90
23475;DHT22;11910;52.086;21.066;2024-01-30T03:02:26;0.70;99.90
23475;DHT22;11910;52.086;21.066;2024-01-30T03:04:52;0.60;99.90
23475;DHT22;11910;52.086;21.066;2024-01-30T03:07:17;0.60;99.90
23475;DHT22;11910;52.086;21.066;2024-01-30T03:09:43;0.60;99.90
23475;DHT22;11910;52.086;21.066;2024-01-30T03:12:09;0.60;99.90
23475;DHT22;11910;52.086;21.066;2024-01-30T03:14:35;0.60;99.90
23475;DHT22;11910;52.086;21.066;2024-01-30T03:17:00;0.60;99.90
23475;DHT22;11910;52.086;21.066;2024-01-30T03:19:26;0.70;99.90
23475;DHT22;11910;52.086;21.066;2024-01-30T03:21:52;0.60;99.90
23475;DHT22;11910;52.086;21.066;2024-01-30T03:24:18;0.60;99.90
23475;DHT22;11910;52.086;21.066;2024-01-30T03:26:44;0.60;99.90
23475;DHT22;11910;52.086;21.066;2024-01-30T03:29:09;0.50;99.90
23475;DHT22;11910;52.086;21.066;2024-01-30T03:31:35;0.50;99.90
23475;DHT22;11910;52.086;21.066;2024-01-30T03:34:01;0.50;99.90
23475;DHT22;11910;52.086;21.066;2024-01-30T03:36:27;0.50;99.90
23475;DHT22;11910;52.086;21.066;2024-01-30T03:38:53;0.50;99.90
23475;DHT22;11910;52.086;21.066;2024-01-30T03:41:18;0.40;99.90
23475;DHT22;11910;52.086;21.066;2024-01-30T03:43:44;0.40;99.90
23475;DHT22;11910;52.086;21.066;2024-01-30T03:46:12;0.30;99.90
23475;DHT22;11910;52.086;21.066;2024-01-30T03:48:37;0.30;99.90
23475;DHT22;11910;52.086;21.066;2024-01-30T03:51:03;0.30;99.90
23475;DHT22;11910;52.086;21.066;2024-01-30T03:53:29;0.30;99.90
23475;DHT22;11910;52.086;21.066;2024-01-30T03:55:55;0.30;99.90
23475;DHT22;11910;52.086;21.066;2024-01-30T03:58:20;0.40;99.90
23475;DHT22;11910;52.086;21.066;2024-01-30T04:00:46;0.40;99.90
23475;DHT22;11910;52.086;21.066;2024-01-30T04:03:11;0.40;99.90
23475;DHT22;11910;52.086;21.066;2024-01-30T04:05:37;0.40;99.90
23475;DHT22;11910;52.086;21.066;2024-01-30T04:08:02;0.30;99.90
23475;DHT22;11910;52.086;21.066;2024-01-30T04:10:28;0.30;99.90
23475;DHT22;11910;52.086;21.066;2024-01-30T04:12:54;0.20;99.90
23475;DHT22;11910;52.086;21.066;2024-01-30T04:15:19;0.20;99.90
23475;DHT22;11910;52.086;21.066;2024-01-30T04:17:45;0.20;99.90
23475;DHT22;11910;52.086;21.066;2024-01-30T04:20:14;0.10;99.90
23475;DHT22;11910;52.086;21.066;2024-01-30T04:22:43;0.10;99.90
23475;DHT22;11910;52.086;21.066;2024-01-30T04:25:09;0.10;99.90
23475;DHT22;11910;52.086;21.066;2024-01-30T04:27:34;0.10;99.90
23475;DHT22;11910;52.086;21.066;2024-01-30T04:30:00;0.00;99.90
23475;DHT22;11910;52.086;21.066;2024-01-30T04:32:25;0.00;99.90
23475;DHT22;11910;52.086;21.066;2024-01-30T04:34:51;0.10;99.90
23475;DHT22;11910;52.086;21.066;2024-01-30T04:37:16;0.00;99.90
23475;DHT22;11910;52.086;21.066;2024-01-30T04:39:42;0.00;99.90
23475;DHT22;11910;52.086;21.066;2024-01-30T04:42:08;0.00;99.90
23475;DHT22;11910;52.086;21.066;2024-01-30T04:44:33;-0.10;99.90
23475;DHT22;11910;52.086;21.066;2024-01-30T04:46:59;-0.10;99.90
23475;DHT22;11910;52.086;21.066;2024-01-30T04:49:27;-0.10;99.90
23475;DHT22;11910;52.086;21.066;2024-01-30T04:51:52;-0.10;99.90
23475;DHT22;11910;52.086;21.066;2024-01-30T04:54:18;-0.10;99.90
23475;DHT22;11910;52.086;21.066;2024-01-30T04:56:52;-0.10;99.90
23475;DHT22;11910;52.086;21.066;2024-01-30T04:59:18;0.00;99.90
23475;DHT22;11910;52.086;21.066;2024-01-30T05:01:44;-0.10;99.90
23475;DHT22;11910;52.086;21.066;2024-01-30T05:04:09;0.00;99.90
23475;DHT22;11910;52.086;21.066;2024-01-30T05:06:35;0.00;99.90
23475;DHT22;11910;52.086;21.066;2024-01-30T05:09:01;0.00;99.90
23475;DHT22;11910;52.086;21.066;2024-01-30T05:11:26;0.00;99.90
23475;DHT22;11910;52.086;21.066;2024-01-30T05:13:52;0.00;99.90
23475;DHT22;11910;52.086;21.066;2024-01-30T05:16:18;-0.10;99.90
23475;DHT22;11910;52.086;21.066;2024-01-30T05:18:43;-0.10;99.90
23475;DHT22;11910;52.086;21.066;2024-01-30T05:21:10;-0.10;99.90
23475;DHT22;11910;52.086;21.066;2024-01-30T05:23:36;-0.10;99.90
23475;DHT22;11910;52.086;21.066;2024-01-30T05:26:01;-0.10;99.90
23475;DHT22;11910;52.086;21.066;2024-01-30T05:28:30;-0.10;99.90
23475;DHT22;11910;52.086;21.066;2024-01-30T05:30:56;-0.10;99.90
23475;DHT22;11910;52.086;21.066;2024-01-30T05:33:22;-0.10;99.90
23475;DHT22;11910;52.086;21.066;2024-01-30T05:35:47;-0.10;99.90
23475;DHT22;11910;52.086;21.066;2024-01-30T05:38:14;-0.10;99.90
23475;DHT22;11910;52.086;21.066;2024-01-30T05:40:40;-0.10;99.90
23475;DHT22;11910;52.086;21.066;2024-01-30T05:43:05;-0.10;99.90
23475;DHT22;11910;52.086;21.066;2024-01-30T05:45:31;-0.10;99.90
23475;DHT22;11910;52.086;21.066;2024-01-30T05:47:57;0.00;99.90
23475;DHT22;11910;52.086;21.066;2024-01-30T05:50:22;0.00;99.90
23475;DHT22;11910;52.086;21.066;2024-01-30T05:52:48;0.00;99.90
23475;DHT22;11910;52.086;21.066;2024-01-30T05:55:14;-0.10;99.90
23475;DHT22;11910;52.086;21.066;2024-01-30T05:57:40;-0.10;99.90
23475;DHT22;11910;52.086;21.066;2024-01-30T06:00:06;-0.10;99.90
23475;DHT22;11910;52.086;21.066;2024-01-30T06:02:33;0.00;99.90
23475;DHT22;11910;52.086;21.066;2024-01-30T06:04:58;0.00;99.90
23475;DHT22;11910;52.086;21.066;2024-01-30T06:07:24;0.00;99.90
23475;DHT22;11910;52.086;21.066;2024-01-30T06:09:49;0.10;99.90
23475;DHT22;11910;52.086;21.066;2024-01-30T06:12:15;0.10;99.90
23475;DHT22;11910;52.086;21.066;2024-01-30T06:14:41;0.00;99.90
23475;DHT22;11910;52.086;21.066;2024-01-30T06:17:08;0.00;99.90
23475;DHT22;11910;52.086;21.066;2024-01-30T06:19:33;0.00;99.90
23475;DHT22;11910;52.086;21.066;2024-01-30T06:21:59;0.00;99.90
23475;DHT22;11910;52.086;21.066;2024-01-30T06:24:25;0.00;99.90
23475;DHT22;11910;52.086;21.066;2024-01-30T06:26:50;0.00;99.90
23475;DHT22;11910;52.086;21.066;2024-01-30T06:29:16;0.10;99.90
23475;DHT22;11910;52.086;21.066;2024-01-30T06:31:42;0.10;99.90
23475;DHT22;11910;52.086;21.066;2024-01-30T06:34:08;0.10;99.90
23475;DHT22;11910;52.086;21.066;2024-01-30T06:36:34;0.10;99.90
23475;DHT22;11910;52.086;21.066;2024-01-30T06:39:00;0.20;99.90
23475;DHT22;11910;52.086;21.066;2024-01-30T06:41:25;0.20;99.90
23475;DHT22;11910;52.086;21.066;2024-01-30T06:43:51;0.20;99.90
23475;DHT22;11910;52.086;21.066;2024-01-30T06:46:17;0.20;99.90
23475;DHT22;11910;52.086;21.066;2024-01-30T06:48:43;0.30;99.90
23475;DHT22;11910;52.086;21.066;2024-01-30T06:51:10;0.30;99.90
23475;DHT22;11910;52.086;21.066;2024-01-30T06:53:36;0.40;99.90
23475;DHT22;11910;52.086;21.066;2024-01-30T06:56:02;0.40;99.90
23475;DHT22;11910;52.086;21.066;2024-01-30T06:58:28;0.50;99.90
23475;DHT22;11910;52.086;21.066;2024-01-30T07:00:54;0.60;99.90
23475;DHT22;11910;52.086;21.066;2024-01-30T07:03:19;0.70;99.90
23475;DHT22;11910;52.086;21.066;2024-01-30T07:05:45;0.80;99.90
23475;DHT22;11910;52.086;21.066;2024-01-30T07:08:11;0.90;99.90
23475;DHT22;11910;52.086;21.066;2024-01-30T07:10:36;0.90;99.90
23475;DHT22;11910;52.086;21.066;2024-01-30T07:13:02;1.00;99.90
23475;DHT22;11910;52.086;21.066;2024-01-30T07:15:29;1.10;99.90
23475;DHT22;11910;52.086;21.066;2024-01-30T07:17:55;1.20;99.90
23475;DHT22;11910;52.086;21.066;2024-01-30T07:20:20;1.30;99.90
23475;DHT22;11910;52.086;21.066;2024-01-30T07:22:46;1.30;99.90
23475;DHT22;11910;52.086;21.066;2024-01-30T07:25:13;1.40;99.90
23475;DHT22;11910;52.086;21.066;2024-01-30T07:27:38;1.40;99.90
23475;DHT22;11910;52.086;21.066;2024-01-30T07:30:04;1.50;99.90
23475;DHT22;11910;52.086;21.066;2024-01-30T07:32:30;1.50;99.90
23475;DHT22;11910;52.086;21.066;2024-01-30T07:34:57;1.60;99.90
23475;DHT22;11910;52.086;21.066;2024-01-30T07:37:22;1.60;99.90
23475;DHT22;11910;52.086;21.066;2024-01-30T07:39:48;1.70;99.90
23475;DHT22;11910;52.086;21.066;2024-01-30T07:42:14;1.80;99.90
23475;DHT22;11910;52.086;21.066;2024-01-30T07:44:39;1.90;99.90
23475;DHT22;11910;52.086;21.066;2024-01-30T07:47:05;2.00;99.90
23475;DHT22;11910;52.086;21.066;2024-01-30T07:49:30;2.10;99.90
23475;DHT22;11910;52.086;21.066;2024-01-30T07:51:56;2.20;99.90
23475;DHT22;11910;52.086;21.066;2024-01-30T07:54:22;2.40;99.90
23475;DHT22;11910;52.086;21.066;2024-01-30T07:56:48;2.50;99.90
23475;DHT22;11910;52.086;21.066;2024-01-30T07:59:14;2.60;99.90
23475;DHT22;11910;52.086;21.066;2024-01-30T08:01:40;2.70;99.90
23475;DHT22;11910;52.086;21.066;2024-01-30T08:04:05;2.70;99.90
23475;DHT22;11910;52.086;21.066;2024-01-30T08:06:31;2.90;99.90
23475;DHT22;11910;52.086;21.066;2024-01-30T08:08:57;2.90;99.90
23475;DHT22;11910;52.086;21.066;2024-01-30T08:11:24;3.00;99.90
23475;DHT22;11910;52.086;21.066;2024-01-30T08:13:52;3.20;99.90
23475;DHT22;11910;52.086;21.066;2024-01-30T08:16:18;3.30;99.90
23475;DHT22;11910;52.086;21.066;2024-01-30T08:18:44;3.40;99.90
23475;DHT22;11910;52.086;21.066;2024-01-30T08:21:09;3.50;99.90
23475;DHT22;11910;52.086;21.066;2024-01-30T08:23:35;3.60;99.90
23475;DHT22;11910;52.086;21.066;2024-01-30T08:26:00;3.70;99.90
23475;DHT22;11910;52.086;21.066;2024-01-30T08:28:26;3.80;99.90
23475;DHT22;11910;52.086;21.066;2024-01-30T08:30:52;3.90;99.90
23475;DHT22;11910;52.086;21.066;2024-01-30T08:33:17;4.00;99.90
23475;DHT22;11910;52.086;21.066;2024-01-30T08:35:43;4.10;99.90
23475;DHT22;11910;52.086;21.066;2024-01-30T08:38:09;4.20;99.90
23475;DHT22;11910;52.086;21.066;2024-01-30T08:40:34;4.30;99.90
23475;DHT22;11910;52.086;21.066;2024-01-30T08:43:00;4.40;99.90
23475;DHT22;11910;52.086;21.066;2024-01-30T08:45:26;4.60;99.90
23475;DHT22;11910;52.086;21.066;2024-01-30T08:47:51;4.70;99.90
23475;DHT22;11910;52.086;21.066;2024-01-30T08:50:17;4.80;99.90
23475;DHT22;11910;52.086;21.066;2024-01-30T08:52:43;5.00;99.90
23475;DHT22;11910;52.086;21.066;2024-01-30T08:55:09;5.30;99.90
23475;DHT22;11910;52.086;21.066;2024-01-30T08:57:34;5.90;99.90
23475;DHT22;11910;52.086;21.066;2024-01-30T09:00:00;6.10;99.90
23475;DHT22;11910;52.086;21.066;2024-01-30T09:02:28;6.70;99.90
23475;DHT22;11910;52.086;21.066;2024-01-30T09:04:53;7.00;99.90
23475;DHT22;11910;52.086;21.066;2024-01-30T09:07:19;7.20;99.90
23475;DHT22;11910;52.086;21.066;2024-01-30T09:09:44;7.40;99.90
23475;DHT22;11910;52.086;21.066;2024-01-30T09:12:10;7.60;99.90
23475;DHT22;11910;52.086;21.066;2024-01-30T09:14:39;8.10;99.90
23475;DHT22;11910;52.086;21.066;2024-01-30T09:17:05;8.40;99.90
23475;DHT22;11910;52.086;21.066;2024-01-30T09:19:31;8.50;99.90
23475;DHT22;11910;52.086;21.066;2024-01-30T09:21:56;8.20;99.90
23475;DHT22;11910;52.086;21.066;2024-01-30T09:24:22;7.90;99.90
23475;DHT22;11910;52.086;21.066;2024-01-30T09:26:48;7.90;99.90
23475;DHT22;11910;52.086;21.066;2024-01-30T09:29:13;7.50;99.90
23475;DHT22;11910;52.086;21.066;2024-01-30T09:31:39;7.50;99.90
23475;DHT22;11910;52.086;21.066;2024-01-30T09:34:04;7.30;99.90
23475;DHT22;11910;52.086;21.066;2024-01-30T09:36:31;7.70;99.90
23475;DHT22;11910;52.086;21.066;2024-01-30T09:38:57;8.50;99.90
23475;DHT22;11910;52.086;21.066;2024-01-30T09:41:24;8.90;99.40
23475;DHT22;11910;52.086;21.066;2024-01-30T09:43:51;9.10;98.80
23475;DHT22;11910;52.086;21.066;2024-01-30T09:46:17;9.20;98.30
23475;DHT22;11910;52.086;21.066;2024-01-30T09:48:46;8.70;98.50
23475;DHT22;11910;52.086;21.066;2024-01-30T09:51:14;8.40;99.00
23475;DHT22;11910;52.086;21.066;2024-01-30T09:53:41;8.10;99.40
23475;DHT22;11910;52.086;21.066;2024-01-30T09:56:07;8.00;99.90
23475;DHT22;11910;52.086;21.066;2024-01-30T09:58:33;7.90;99.90
23475;DHT22;11910;52.086;21.066;2024-01-30T10:00:58;7.80;99.60
23475;DHT22;11910;52.086;21.066;2024-01-30T10:03:24;7.80;99.60
23475;DHT22;11910;52.086;21.066;2024-01-30T10:05:51;7.70;99.50
23475;DHT22;11910;52.086;21.066;2024-01-30T10:08:20;7.80;99.80
23475;DHT22;11910;52.086;21.066;2024-01-30T10:10:47;7.80;99.80
23475;DHT22;11910;52.086;21.066;2024-01-30T10:13:12;7.80;99.20
23475;DHT22;11910;52.086;21.066;2024-01-30T10:15:38;7.80;99.10
23475;DHT22;11910;52.086;21.066;2024-01-30T10:18:04;7.80;99.00
23475;DHT22;11910;52.086;21.066;2024-01-30T10:20:32;7.80;99.10
23475;DHT22;11910;52.086;21.066;2024-01-30T10:22:58;7.90;99.20
23475;DHT22;11910;52.086;21.066;2024-01-30T10:25:25;7.80;98.90
23475;DHT22;11910;52.086;21.066;2024-01-30T10:27:54;7.90;98.90
23475;DHT22;11910;52.086;21.066;2024-01-30T10:30:24;7.90;98.70
23475;DHT22;11910;52.086;21.066;2024-01-30T10:32:49;7.90;98.30
23475;DHT22;11910;52.086;21.066;2024-01-30T10:35:16;8.00;98.70
23475;DHT22;11910;52.086;21.066;2024-01-30T10:37:47;8.10;98.40
23475;DHT22;11910;52.086;21.066;2024-01-30T10:40:14;8.10;98.20
23475;DHT22;11910;52.086;21.066;2024-01-30T10:42:45;8.20;98.10
23475;DHT22;11910;52.086;21.066;2024-01-30T10:45:11;8.30;97.50
23475;DHT22;11910;52.086;21.066;2024-01-30T10:47:48;8.40;97.70
23475;DHT22;11910;52.086;21.066;2024-01-30T10:50:15;8.40;97.80
23475;DHT22;11910;52.086;21.066;2024-01-30T10:52:42;8.40;97.40
23475;DHT22;11910;52.086;21.066;2024-01-30T10:55:10;8.50;97.10
23475;DHT22;11910;52.086;21.066;2024-01-30T10:57:36;8.60;97.30
23475;DHT22;11910;52.086;21.066;2024-01-30T11:00:04;8.80;96.70
23475;DHT22;11910;52.086;21.066;2024-01-30T11:02:39;8.90;96.10
23475;DHT22;11910;52.086;21.066;2024-01-30T11:05:05;9.10;96.00
23475;DHT22;11910;52.086;21.066;2024-01-30T11:07:31;9.40;95.70
23475;DHT22;11910;52.086;21.066;2024-01-30T11:10:02;10.80;95.30
23475;DHT22;11910;52.086;21.066;2024-01-30T11:12:30;13.40;92.40
23475;DHT22;11910;52.086;21.066;2024-01-30T11:15:09;15.40;87.00
23475;DHT22;11910;52.086;21.066;2024-01-30T11:20:10;17.20;73.90
23475;DHT22;11910;52.086;21.066;2024-01-30T11:22:37;18.30;70.20
23475;DHT22;11910;52.086;21.066;2024-01-30T11:25:03;18.80;65.00
23475;DHT22;11910;52.086;21.066;2024-01-30T11:27:31;17.20;66.40
23475;DHT22;11910;52.086;21.066;2024-01-30T11:30:03;15.70;67.40
23475;DHT22;11910;52.086;21.066;2024-01-30T11:32:29;14.40;69.50
23475;DHT22;11910;52.086;21.066;2024-01-30T11:34:55;13.60;72.00
23475;DHT22;11910;52.086;21.066;2024-01-30T11:37:21;14.00;72.30
23475;DHT22;11910;52.086;21.066;2024-01-30T11:39:50;15.00;69.90
23475;DHT22;11910;52.086;21.066;2024-01-30T11:42:16;14.00;70.80
23475;DHT22;11910;52.086;21.066;2024-01-30T11:44:47;13.20;72.90
23475;DHT22;11910;52.086;21.066;2024-01-30T11:47:12;12.70;74.30
23475;DHT22;11910;52.086;21.066;2024-01-30T11:49:39;13.40;74.20
23475;DHT22;11910;52.086;21.066;2024-01-30T11:52:05;16.50;69.20
23475;DHT22;11910;52.086;21.066;2024-01-30T11:54:30;18.50;64.30
23475;DHT22;11910;52.086;21.066;2024-01-30T11:56:56;19.90;60.10
23475;DHT22;11910;52.086;21.066;2024-01-30T11:59:21;20.40;57.80
23475;DHT22;11910;52.086;21.066;2024-01-30T12:01:47;21.50;56.40
23475;DHT22;11910;52.086;21.066;2024-01-30T12:04:13;22.10;54.80
23475;DHT22;11910;52.086;21.066;2024-01-30T12:06:39;22.50;53.20
23475;DHT22;11910;52.086;21.066;2024-01-30T12:09:05;22.90;54.10
23475;DHT22;11910;52.086;21.066;2024-01-30T12:11:43;23.40;53.30
23475;DHT22;11910;52.086;21.066;2024-01-30T12:14:09;23.90;49.00
23475;DHT22;11910;52.086;21.066;2024-01-30T12:16:35;24.00;47.70
23475;DHT22;11910;52.086;21.066;2024-01-30T12:19:01;23.90;46.70
23475;DHT22;11910;52.086;21.066;2024-01-30T12:21:28;24.10;46.20
23475;DHT22;11910;52.086;21.066;2024-01-30T12:23:54;24.10;46.00
23475;DHT22;11910;52.086;21.066;2024-01-30T12:26:19;24.20;45.60
23475;DHT22;11910;52.086;21.066;2024-01-30T12:28:49;24.60;45.20
23475;DHT22;11910;52.086;21.066;2024-01-30T12:31:18;24.80;43.90
23475;DHT22;11910;52.086;21.066;2024-01-30T12:33:50;24.80;43.50
23475;DHT22;11910;52.086;21.066;2024-01-30T12:36:16;24.80;43.30
23475;DHT22;11910;52.086;21.066;2024-01-30T12:38:42;23.80;43.30
23475;DHT22;11910;52.086;21.066;2024-01-30T12:41:08;24.00;43.70
23475;DHT22;11910;52.086;21.066;2024-01-30T12:43:34;24.50;43.10
23475;DHT22;11910;52.086;21.066;2024-01-30T12:46:00;25.00;42.80
23475;DHT22;11910;52.086;21.066;2024-01-30T12:48:26;25.20;42.00
23475;DHT22;11910;52.086;21.066;2024-01-30T12:50:54;25.10;42.10
23475;DHT22;11910;52.086;21.066;2024-01-30T12:53:20;24.90;42.30
23475;DHT22;11910;52.086;21.066;2024-01-30T12:55:45;25.40;41.40
23475;DHT22;11910;52.086;21.066;2024-01-30T12:58:11;25.60;41.00
23475;DHT22;11910;52.086;21.066;2024-01-30T13:00:36;24.70;41.00
23475;DHT22;11910;52.086;21.066;2024-01-30T13:03:02;21.80;43.00
23475;DHT22;11910;52.086;21.066;2024-01-30T13:05:28;20.70;45.40
23475;DHT22;11910;52.086;21.066;2024-01-30T13:07:53;19.90;46.00
23475;DHT22;11910;52.086;21.066;2024-01-30T13:10:19;18.10;48.30
23475;DHT22;11910;52.086;21.066;2024-01-30T13:12:45;16.80;50.00
23475;DHT22;11910;52.086;21.066;2024-01-30T13:15:10;15.30;52.20
23475;DHT22;11910;52.086;21.066;2024-01-30T13:17:36;15.10;53.90
23475;DHT22;11910;52.086;21.066;2024-01-30T13:20:02;17.80;50.80
23475;DHT22;11910;52.086;21.066;2024-01-30T13:22:29;18.90;49.10
23475;DHT22;11910;52.086;21.066;2024-01-30T13:24:55;18.00;48.80
23475;DHT22;11910;52.086;21.066;2024-01-30T13:27:21;16.50;50.20
23475;DHT22;11910;52.086;21.066;2024-01-30T13:29:46;15.70;51.90
23475;DHT22;11910;52.086;21.066;2024-01-30T13:32:12;15.20;53.30
23475;DHT22;11910;52.086;21.066;2024-01-30T13:34:38;15.10;53.20
23475;DHT22;11910;52.086;21.066;2024-01-30T13:37:03;14.00;55.20
23475;DHT22;11910;52.086;21.066;2024-01-30T13:39:29;14.30;55.50
23475;DHT22;11910;52.086;21.066;2024-01-30T13:41:55;13.40;56.00
23475;DHT22;11910;52.086;21.066;2024-01-30T13:44:21;13.10;56.80
23475;DHT22;11910;52.086;21.066;2024-01-30T13:46:46;13.00;57.00
23475;DHT22;11910;52.086;21.066;2024-01-30T13:49:12;12.50;57.80
23475;DHT22;11910;52.086;21.066;2024-01-30T13:51:38;12.70;58.00
23475;DHT22;11910;52.086;21.066;2024-01-30T13:54:05;12.20;58.50
23475;DHT22;11910;52.086;21.066;2024-01-30T13:56:31;11.90;58.90
23475;DHT22;11910;52.086;21.066;2024-01-30T13:58:57;11.40;59.90
23475;DHT22;11910;52.086;21.066;2024-01-30T14:01:22;11.00;61.50
23475;DHT22;11910;52.086;21.066;2024-01-30T14:03:49;10.70;62.50
23475;DHT22;11910;52.086;21.066;2024-01-30T14:06:15;10.60;63.10
23475;DHT22;11910;52.086;21.066;2024-01-30T14:08:40;10.30;63.70
23475;DHT22;11910;52.086;21.066;2024-01-30T14:11:06;11.20;63.30
23475;DHT22;11910;52.086;21.066;2024-01-30T14:13:32;11.60;60.80
23475;DHT22;11910;52.086;21.066;2024-01-30T14:15:58;11.10;62.20
23475;DHT22;11910;52.086;21.066;2024-01-30T14:18:23;11.20;62.30
23475;DHT22;11910;52.086;21.066;2024-01-30T14:20:51;10.90;62.30
23475;DHT22;11910;52.086;21.066;2024-01-30T14:23:17;10.40;63.70
23475;DHT22;11910;52.086;21.066;2024-01-30T14:25:43;10.10;65.10
23475;DHT22;11910;52.086;21.066;2024-01-30T14:28:09;9.80;65.90
23475;DHT22;11910;52.086;21.066;2024-01-30T14:30:34;9.70;68.30
23475;DHT22;11910;52.086;21.066;2024-01-30T14:33:01;9.50;67.60
23475;DHT22;11910;52.086;21.066;2024-01-30T14:35:26;9.50;72.10
23475;DHT22;11910;52.086;21.066;2024-01-30T14:37:52;9.30;70.60
23475;DHT22;11910;52.086;21.066;2024-01-30T14:40:18;9.00;71.10
23475;DHT22;11910;52.086;21.066;2024-01-30T14:42:44;8.90;71.80
23475;DHT22;11910;52.086;21.066;2024-01-30T14:45:10;8.80;72.40
23475;DHT22;11910;52.086;21.066;2024-01-30T14:47:37;8.70;73.90
23475;DHT22;11910;52.086;21.066;2024-01-30T14:50:03;8.50;72.80
23475;DHT22;11910;52.086;21.066;2024-01-30T14:52:31;8.40;72.40
23475;DHT22;11910;52.086;21.066;2024-01-30T14:54:57;8.40;73.30
23475;DHT22;11910;52.086;21.066;2024-01-30T14:57:24;8.30;73.00
23475;DHT22;11910;52.086;21.066;2024-01-30T14:59:49;8.30;73.50
23475;DHT22;11910;52.086;21.066;2024-01-30T15:02:15;8.20;73.50
23475;DHT22;11910;52.086;21.066;2024-01-30T15:04:41;8.20;73.80
23475;DHT22;11910;52.086;21.066;2024-01-30T15:07:07;8.10;75.10
23475;DHT22;11910;52.086;21.066;2024-01-30T15:09:33;7.90;75.80
23475;DHT22;11910;52.086;21.066;2024-01-30T15:11:59;7.90;75.10
23475;DHT22;11910;52.086;21.066;2024-01-30T15:14:25;7.70;75.80
23475;DHT22;11910;52.086;21.066;2024-01-30T15:16:50;7.70;76.30
23475;DHT22;11910;52.086;21.066;2024-01-30T15:19:16;7.50;77.00
23475;DHT22;11910;52.086;21.066;2024-01-30T15:21:42;7.40;77.40
23475;DHT22;11910;52.086;21.066;2024-01-30T15:24:07;7.30;78.60